Time;durP1;ratioP1;P1;durP2;ratioP2;P2;SDS_P1;SDS_P2;PMS_P1;PMS_P2;Temp;Humidity;BMP_temperature;BMP_pressure;BME280_temperature;BME280_humidity;BME280_pressure;Samples;Min_cycle;Max_cycle;Signal;HPM_P1;HPM_P2
2023/07/05 00:00:07;;;;;;;7.62;4.50;;;25.70;99.90;;;;;;1827876;76;21181;-81
2023/07/05 00:02:38;;;;;;;10.58;5.17;;;25.80;99.90;;;;;;1844415;76;21142;-79
2023/07/05 00:05:11;;;;;;;9.00;4.83;;;25.80;99.90;;;;;;1899828;74;21583;-82
2023/07/05 00:07:52;;;;;;;8.45;5.22;;;25.80;99.90;;;;;;1865006;76;21153;-82
2023/07/05 00:10:28;;;;;;;10.30;4.90;;;25.80;99.90;;;;;;1855465;76;21509;-80
2023/07/05 00:13:04;;;;;;;10.75;4.60;;;25.90;99.90;;;;;;1850069;76;21107;-80
2023/07/05 00:15:38;;;;;;;7.55;3.90;;;25.90;99.90;;;;;;1891034;74;21240;-80
2023/07/05 00:18:15;;;;;;;7.08;3.98;;;25.90;99.90;;;;;;1881062;75;21170;-80
2023/07/05 00:21:04;;;;;;;9.05;4.05;;;25.90;99.90;;;;;;1877567;74;21125;-79
2023/07/05 00:23:39;;;;;;;7.85;4.55;;;25.90;99.90;;;;;;1864587;76;21909;-79
2023/07/05 00:26:15;;;;;;;7.10;3.80;;;25.90;99.90;;;;;;1844919;76;21131;-80
2023/07/05 00:28:51;;;;;;;7.53;4.05;;;26.00;99.90;;;;;;1896253;74;21641;-79
2023/07/05 00:31:29;;;;;;;7.67;4.28;;;26.00;99.90;;;;;;1867377;75;21197;-78
2023/07/05 00:34:03;;;;;;;7.90;4.60;;;26.00;99.90;;;;;;1885993;74;21184;-79
2023/07/05 00:36:39;;;;;;;5.35;3.90;;;26.00;99.90;;;;;;1880757;75;21164;-81
2023/07/05 00:39:13;;;;;;;8.15;4.20;;;26.10;99.90;;;;;;1886542;75;21669;-77
2023/07/05 00:41:46;;;;;;;10.35;6.37;;;26.10;99.90;;;;;;1892965;75;21079;-81
2023/07/05 00:44:20;;;;;;;10.82;5.45;;;26.10;99.90;;;;;;1899675;74;21119;-81
2023/07/05 00:47:00;;;;;;;6.72;4.08;;;26.20;99.90;;;;;;1881388;75;21078;-82
2023/07/05 00:49:37;;;;;;;11.08;4.75;;;26.20;99.90;;;;;;1841271;76;21139;-82
2023/07/05 00:52:13;;;;;;;8.70;4.22;;;26.20;99.90;;;;;;1895702;74;21164;-83
2023/07/05 00:54:52;;;;;;;5.70;3.37;;;26.20;99.90;;;;;;1896068;74;21053;-83
2023/07/05 00:57:27;;;;;;;10.55;4.20;;;26.20;99.90;;;;;;1875939;75;21197;-78
2023/07/05 01:00:17;;;;;;;7.97;4.05;;;26.30;99.90;;;;;;1894253;74;21129;-81
2023/07/05 01:03:05;;;;;;;8.40;3.83;;;26.30;99.90;;;;;;1900208;74;21071;-83
2023/07/05 01:05:41;;;;;;;6.22;3.55;;;26.30;99.90;;;;;;1868728;75;21173;-79
2023/07/05 01:08:15;;;;;;;8.00;3.70;;;26.40;99.90;;;;;;1871080;75;21096;-80
2023/07/05 01:11:13;;;;;;;10.72;4.80;;;26.40;99.90;;;;;;1842347;76;21616;-81
2023/07/05 01:13:51;;;;;;;19.57;5.85;;;26.40;99.90;;;;;;1844817;76;21643;-83
2023/07/05 01:16:45;;;;;;;13.10;4.17;;;26.50;99.90;;;;;;1867855;76;21192;-82
2023/07/05 01:19:38;;;;;;;11.63;4.25;;;26.60;99.90;;;;;;1860618;75;21175;-82
2023/07/05 01:22:17;;;;;;;18.48;4.97;;;26.70;99.90;;;;;;1859816;76;21582;-79
2023/07/05 01:25:00;;;;;;;10.00;4.15;;;26.70;99.90;;;;;;1887048;75;21120;-81
2023/07/05 01:27:54;;;;;;;16.17;4.62;;;26.80;99.90;;;;;;1854290;76;21089;-82
2023/07/05 01:30:45;;;;;;;10.85;4.12;;;26.90;99.90;;;;;;1856250;76;21189;-82
2023/07/05 01:33:37;;;;;;;7.22;3.85;;;27.00;99.90;;;;;;1858875;75;21228;-81
2023/07/05 01:36:11;;;;;;;12.33;4.05;;;27.10;99.90;;;;;;1845142;76;21209;-81
2023/07/05 01:38:49;;;;;;;13.90;3.72;;;27.20;99.90;;;;;;1864058;76;21599;-83
2023/07/05 01:41:22;;;;;;;17.07;4.10;;;27.20;99.90;;;;;;1856015;77;21693;-79
2023/07/05 01:43:56;;;;;;;21.33;5.45;;;27.30;99.90;;;;;;1881223;76;21153;-82
2023/07/05 01:46:31;;;;;;;7.65;3.17;;;27.30;99.90;;;;;;1885410;75;21160;-82
2023/07/05 01:49:29;;;;;;;10.40;3.45;;;27.40;99.90;;;;;;1884083;75;21138;-83
2023/07/05 01:52:27;;;;;;;12.90;3.17;;;27.50;99.90;;;;;;1868859;75;21130;-80
2023/07/05 01:55:13;;;;;;;15.68;4.10;;;27.50;99.90;;;;;;1884945;75;21081;-81
2023/07/05 01:57:48;;;;;;;15.00;3.35;;;27.60;99.90;;;;;;1883558;75;21095;-80
2023/07/05 02:00:23;;;;;;;9.55;2.83;;;27.70;99.90;;;;;;1881455;75;21154;-83
2023/07/05 02:03:01;;;;;;;16.82;3.33;;;27.80;99.90;;;;;;1863025;76;21463;-80
2023/07/05 02:05:47;;;;;;;10.48;2.90;;;27.90;99.90;;;;;;1884654;75;21120;-81
2023/07/05 02:08:27;;;;;;;10.80;3.15;;;28.00;99.90;;;;;;1882889;76;21612;-81
2023/07/05 02:11:05;;;;;;;8.75;2.85;;;28.00;99.90;;;;;;1859619;75;21174;-79
2023/07/05 02:13:39;;;;;;;5.33;2.35;;;28.10;99.90;;;;;;1886884;75;21124;-83
2023/07/05 02:16:13;;;;;;;30.05;5.28;;;28.10;99.90;;;;;;1882379;75;21189;-69
2023/07/05 02:18:49;;;;;;;22.67;4.67;;;;;;;;;;1885432;75;21607;-68
2023/07/05 02:21:26;;;;;;;21.50;4.60;;;;;;;;;;1885947;75;21164;-70
2023/07/05 02:24:04;;;;;;;10.30;3.15;;;;;;;;;;1880976;75;21086;-68
2023/07/05 02:26:38;;;;;;;9.48;2.30;;;;;;;;;;1886158;74;21122;-68
2023/07/05 02:29:11;;;;;;;29.42;6.45;;;;;;;;;;1880991;75;21146;-69
2023/07/05 02:31:43;;;;;;;16.32;3.25;;;;;;;;;;1891827;75;21110;-68
2023/07/05 02:34:20;;;;;;;14.63;3.85;;;;;;;;;;1865062;75;21071;-68
2023/07/05 02:36:58;;;;;;;13.20;2.90;;;;;;;;;;1874869;75;21192;-70
2023/07/05 02:39:31;;;;;;;24.18;4.90;;;;;;;;;;1871456;75;21068;-68
2023/07/05 02:42:06;;;;;;;21.20;3.92;;;;;;;;;;1878968;75;21623;-69
2023/07/05 02:44:40;;;;;;;20.05;3.95;;;;;;;;;;1875883;75;21063;-70
2023/07/05 02:47:20;;;;;;;12.18;2.60;;;;;;;;;;1883689;76;21110;-70
2023/07/05 02:49:53;;;;;;;21.87;4.30;;;;;;;;;;1870008;75;21102;-68
2023/07/05 02:52:28;;;;;;;16.30;3.47;;;;;;;;;;1860997;77;21144;-68
2023/07/05 02:55:03;;;;;;;27.95;5.33;;;;;;;;;;1886151;75;21130;-69
2023/07/05 02:57:38;;;;;;;20.15;4.10;;;;;;;;;;1887413;75;21144;-70
2023/07/05 03:00:16;;;;;;;11.83;3.35;;;;;;;;;;1885635;75;21175;-69
2023/07/05 03:02:57;;;;;;;31.87;5.17;;;;;;;;;;1895262;75;21199;-69
2023/07/05 03:05:36;;;;;;;28.00;5.90;;;;;;;;;;1882004;75;21139;-70
2023/07/05 03:08:14;;;;;;;21.52;4.25;;;;;;;;;;1883984;75;21134;-69
2023/07/05 03:10:50;;;;;;;21.82;4.30;;;;;;;;;;1858908;77;21065;-71
2023/07/05 03:13:22;;;;;;;5.78;1.85;;;;;;;;;;1885043;76;21202;-69
2023/07/05 03:15:53;;;;;;;7.47;1.80;;;;;;;;;;1860532;76;21180;-70
2023/07/05 03:18:29;;;;;;;13.85;3.50;;;;;;;;;;1873162;76;21117;-70
2023/07/05 03:21:05;;;;;;;10.40;2.20;;;;;;;;;;1876052;76;21137;-69
2023/07/05 03:23:38;;;;;;;9.15;2.55;;;;;;;;;;1860298;76;21109;-71
2023/07/05 03:26:15;;;;;;;15.58;3.25;;;;;;;;;;1840810;77;21151;-70
2023/07/05 03:28:47;;;;;;;8.23;2.55;;;;;;;;;;1859441;76;21200;-72
2023/07/05 03:31:23;;;;;;;13.93;2.70;;;;;;;;;;1881220;76;21747;-72
2023/07/05 03:33:56;;;;;;;8.73;1.80;;;;;;;;;;1869608;76;22115;-69
2023/07/05 03:36:28;;;;;;;11.90;2.60;;;;;;;;;;1873214;76;21206;-71
2023/07/05 03:39:01;;;;;;;12.23;2.33;;;30.90;99.90;;;;;;1867496;76;21098;-68
2023/07/05 03:41:36;;;;;;;6.35;2.02;;;;;;;;;;1885144;76;21213;-69
2023/07/05 03:44:08;;;;;;;3.17;1.30;;;;;;;;;;1871293;76;21123;-70
2023/07/05 03:46:42;;;;;;;5.85;2.35;;;;;;;;;;1884134;76;21182;-68
2023/07/05 03:49:16;;;;;;;11.68;2.87;;;;;;;;;;1871584;76;21181;-69
2023/07/05 03:51:50;;;;;;;9.38;2.45;;;;;;;;;;1875266;76;21150;-68
2023/07/05 03:54:22;;;;;;;8.75;2.80;;;;;;;;;;1873065;76;21115;-68
2023/07/05 03:56:53;;;;;;;7.25;2.02;;;;;;;;;;1871751;76;21146;-68
2023/07/05 03:59:24;;;;;;;8.43;3.02;;;;;;;;;;1871992;76;21182;-69
2023/07/05 04:01:56;;;;;;;3.77;1.67;;;;;;;;;;1875062;76;21175;-69
2023/07/05 04:04:31;;;;;;;19.73;5.08;;;;;;;;;;1883111;76;21197;-67
2023/07/05 04:07:04;;;;;;;3.35;1.50;;;;;;;;;;1872697;76;21096;-68
2023/07/05 04:09:36;;;;;;;11.08;3.83;;;;;;;;;;1850851;76;21082;-67
2023/07/05 04:12:16;;;;;;;15.03;6.35;;;;;;;;;;1878307;76;21172;-68
2023/07/05 04:14:47;;;;;;;27.50;15.03;;;;;;;;;;1871381;75;21189;-68
2023/07/05 04:17:21;;;;;;;19.23;11.73;;;;;;;;;;1827555;78;21139;-69
2023/07/05 04:19:54;;;;;;;17.35;9.18;;;;;;;;;;1857889;75;21267;-71
2023/07/05 04:22:31;;;;;;;10.00;2.62;;;;;;;;;;1866464;76;21142;-72
2023/07/05 04:25:03;;;;;;;7.65;2.35;;;;;;;;;;1838024;77;21290;-69
2023/07/05 04:27:36;;;;;;;12.47;2.67;;;;;;;;;;1848294;77;21267;-70
2023/07/05 04:30:09;;;;;;;32.50;5.62;;;;;;;;;;1866187;75;21607;-70
2023/07/05 04:32:42;;;;;;;20.60;3.92;;;;;;;;;;1863251;75;21105;-69
2023/07/05 04:35:14;;;;;;;4.53;1.50;;;;;;;;;;1866658;76;21192;-68
2023/07/05 04:37:46;;;;;;;4.45;1.35;;;;;;;;;;1869589;76;21611;-69
2023/07/05 04:40:18;;;;;;;11.65;2.10;;;;;;;;;;1871941;76;21683;-68
2023/07/05 04:42:52;;;;;;;5.78;1.22;;;;;;;;;;1861234;76;21592;-68
2023/07/05 04:45:23;;;;;;;10.93;2.62;;;;;;;;;;1829827;76;21219;-70
2023/07/05 04:47:56;;;;;;;10.40;2.15;;;;;;;;;;1845426;76;21815;-68
2023/07/05 04:50:26;;;;;;;6.03;1.50;;;;;;;;;;1846616;77;21228;-69
2023/07/05 04:52:59;;;;;;;3.00;1.40;;;;;;;;;;1864474;76;21103;-70
2023/07/05 04:55:31;;;;;;;8.63;2.12;;;;;;;;;;1824006;77;21128;-70
2023/07/05 04:58:05;;;;;;;10.03;2.08;;;;;;;;;;1864405;76;21616;-66
2023/07/05 05:00:38;;;;;;;15.80;2.95;;;;;;;;;;1859539;76;21162;-67
2023/07/05 05:03:12;;;;;;;11.38;1.30;;;;;;;;;;1874740;76;21184;-69
2023/07/05 05:05:46;;;;;;;2.80;1.32;;;;;;;;;;1834688;76;21112;-66
2023/07/05 05:08:22;;;;;;;5.35;1.32;;;;;;;;;;1849120;76;21170;-67
2023/07/05 05:10:55;;;;;;;5.25;1.82;;;;;;;;;;1860151;76;21176;-67
2023/07/05 05:13:28;;;;;;;2.58;1.20;;;;;;;;;;1858014;76;21170;-68
2023/07/05 05:15:59;;;;;;;3.60;1.15;;;;;;;;;;1878249;75;21142;-69
2023/07/05 05:18:34;;;;;;;3.75;1.65;;;;;;;;;;1871252;75;21122;-67
2023/07/05 05:21:06;;;;;;;4.33;1.47;;;;;;;;;;1874691;75;21199;-67
2023/07/05 05:23:40;;;;;;;2.85;1.30;;;;;;;;;;1853764;76;21294;-68
2023/07/05 05:26:13;;;;;;;2.72;1.10;;;;;;;;;;1875379;75;21092;-68
2023/07/05 05:28:45;;;;;;;3.20;1.12;;;;;;;;;;1918346;73;21625;-67
2023/07/05 05:31:16;;;;;;;5.17;1.60;;;;;;;;;;1913965;73;21194;-67
2023/07/05 05:33:48;;;;;;;4.40;1.30;;;;;;;;;;1896632;74;21176;-68
2023/07/05 05:36:29;;;;;;;7.45;2.30;;;;;;;;;;1859512;77;21541;-70
2023/07/05 05:39:02;;;;;;;2.75;1.40;;;;;;;;;;1860110;77;21791;-71
2023/07/05 05:41:33;;;;;;;3.67;1.45;;;;;;;;;;1875168;75;21109;-69
2023/07/05 05:44:07;;;;;;;8.70;1.95;;;;;;;;;;1873527;75;21111;-68
2023/07/05 05:46:42;;;;;;;2.98;1.15;;;;;;;;;;1869329;75;21551;-66
2023/07/05 05:49:13;;;;;;;3.12;1.20;;;;;;;;;;1856315;76;21155;-70
2023/07/05 05:51:45;;;;;;;4.15;1.10;;;;;;;;;;1877114;75;21559;-69
2023/07/05 05:54:15;;;;;;;4.85;1.10;;;;;;;;;;1849439;76;21096;-67
2023/07/05 05:56:48;;;;;;;3.75;1.30;;;;;;;;;;1855706;77;21112;-70
2023/07/05 05:59:20;;;;;;;5.40;1.50;;;;;;;;;;1878399;75;21725;-69
2023/07/05 06:01:56;;;;;;;8.63;1.65;;;;;;;;;;1828209;78;21125;-69
2023/07/05 06:04:30;;;;;;;5.30;1.37;;;;;;;;;;1871109;76;21247;-70
2023/07/05 06:07:02;;;;;;;5.42;1.20;;;;;;;;;;1871913;75;21175;-68
2023/07/05 06:09:38;;;;;;;5.25;2.20;;;;;;;;;;1849617;76;21532;-68
2023/07/05 06:12:12;;;;;;;6.30;1.87;;;;;;;;;;1871392;75;21117;-70
2023/07/05 06:14:45;;;;;;;6.90;1.40;;;;;;;;;;1877785;76;21097;-68
2023/07/05 06:17:17;;;;;;;4.45;1.60;;;;;;;;;;1872891;76;21270;-70
2023/07/05 06:19:51;;;;;;;4.75;1.25;;;;;;;;;;1878822;76;21152;-69
2023/07/05 06:22:21;;;;;;;2.65;1.25;;;;;;;;;;1831563;77;21160;-68
2023/07/05 06:24:54;;;;;;;5.80;1.60;;;;;;;;;;1869133;76;21289;-68
2023/07/05 06:27:28;;;;;;;4.85;2.00;;;;;;;;;;1876404;76;21425;-67
2023/07/05 06:30:00;;;;;;;6.08;2.02;;;;;;;;;;1871866;76;21135;-69
2023/07/05 06:32:32;;;;;;;11.95;2.50;;;;;;;;;;1874875;76;21148;-70
2023/07/05 06:35:05;;;;;;;16.07;3.60;;;;;;;;;;1837599;77;21121;-68
2023/07/05 06:37:37;;;;;;;11.90;2.20;;;;;;;;;;1868021;76;21213;-67
2023/07/05 06:40:10;;;;;;;5.90;1.95;;;;;;;;;;1863771;76;21072;-70
2023/07/05 06:42:42;;;;;;;6.80;1.60;;;;;;;;;;1845444;77;21582;-68
2023/07/05 06:45:16;;;;;;;7.70;2.05;;;;;;;;;;1850373;77;21659;-69
2023/07/05 06:47:50;;;;;;;8.88;1.75;;;;;;;;;;1888813;76;21135;-68
2023/07/05 06:50:21;;;;;;;19.12;3.35;;;;;;;;;;1854085;76;21148;-67
2023/07/05 06:52:54;;;;;;;36.40;5.58;;;;;;;;;;1835938;77;21180;-68
2023/07/05 06:55:28;;;;;;;7.78;2.15;;;;;;;;;;1874676;76;21544;-69
2023/07/05 06:58:02;;;;;;;8.43;2.22;;;;;;;;;;1899850;75;21640;-68
2023/07/05 07:00:32;;;;;;;11.05;2.77;;;;;;;;;;1886163;75;21129;-68
2023/07/05 07:03:04;;;;;;;7.05;2.00;;;;;;;;;;1873237;76;21060;-70
2023/07/05 07:05:37;;;;;;;4.30;1.55;;;;;;;;;;1887545;76;21094;-69
2023/07/05 07:08:07;;;;;;;12.35;3.42;;;;;;;;;;1881380;76;21138;-70
2023/07/05 07:10:40;;;;;;;12.70;2.47;;;;;;;;;;1879458;76;21226;-66
2023/07/05 07:13:14;;;;;;;7.70;2.30;;;;;;;;;;1872218;76;21084;-69
2023/07/05 07:15:47;;;;;;;17.07;4.92;;;;;;;;;;1867967;75;21157;-68
2023/07/05 07:18:20;;;;;;;16.48;2.80;;;;;;;;;;1863703;76;21164;-68
2023/07/05 07:20:55;;;;;;;8.10;1.95;;;;;;;;;;1822798;77;21115;-68
2023/07/05 07:23:27;;;;;;;16.00;2.62;;;;;;;;;;1871849;76;21172;-70
2023/07/05 07:26:13;;;;;;;17.12;2.58;;;;;;;;;;1843467;76;21581;-67
2023/07/05 07:28:49;;;;;;;14.15;3.00;;;;;;;;;;1872062;75;21106;-69
2023/07/05 07:31:21;;;;;;;9.80;1.87;;;;;;;;;;1877760;76;21054;-69
2023/07/05 07:33:54;;;;;;;6.50;1.80;;;;;;;;;;1874813;75;21741;-69
2023/07/05 07:36:26;;;;;;;3.77;1.55;;;;;;;;;;1862632;75;21150;-67
2023/07/05 07:38:57;;;;;;;12.33;2.33;;;;;;;;;;1871192;76;21138;-68
2023/07/05 07:41:31;;;;;;;34.33;5.30;;;;;;;;;;1866605;76;21083;-71
2023/07/05 07:44:05;;;;;;;18.52;3.27;;;;;;;;;;1848307;77;21131;-69
2023/07/05 07:46:38;;;;;;;8.38;2.15;;;;;;;;;;1852134;76;21155;-70
2023/07/05 07:49:16;;;;;;;13.93;2.65;;;;;;;;;;1850873;76;21112;-68
2023/07/05 07:51:49;;;;;;;19.45;3.40;;;;;;;;;;1858472;76;21223;-69
2023/07/05 07:54:26;;;;;;;13.05;2.92;;;;;;;;;;1854363;75;21654;-68
2023/07/05 07:57:05;;;;;;;14.73;3.20;;;;;;;;;;1823036;77;21129;-67
2023/07/05 07:59:41;;;;;;;9.28;2.80;;;;;;;;;;1866253;76;21193;-69
2023/07/05 08:02:15;;;;;;;9.10;2.50;;;;;;;;;;1829237;77;21114;-68
2023/07/05 08:04:57;;;;;;;3.55;1.42;;;;;;;;;;1867689;76;21591;-71
2023/07/05 08:07:26;;;;;;;8.05;2.20;;;;;;;;;;1857446;76;21113;-68
2023/07/05 08:09:58;;;;;;;8.20;2.02;;;;;;;;;;1853055;76;21220;-68
2023/07/05 08:12:32;;;;;;;8.63;1.90;;;;;;;;;;1854209;76;21512;-69
2023/07/05 08:15:06;;;;;;;5.75;2.20;;;;;;;;;;1847334;76;21637;-68
2023/07/05 08:17:40;;;;;;;8.55;2.20;;;;;;;;;;1866900;76;21609;-69
2023/07/05 08:20:14;;;;;;;10.00;2.95;;;;;;;;;;1925714;73;21197;-68
2023/07/05 08:22:46;;;;;;;12.45;2.17;;;;;;;;;;1916985;73;21274;-70
2023/07/05 08:25:17;;;;;;;15.83;2.80;;;;;;;;;;1935983;73;21089;-69
2023/07/05 08:27:50;;;;;;;33.20;4.10;;;;;;;;;;1873453;75;21207;-68
2023/07/05 08:30:24;;;;;;;3.83;1.60;;;;;;;;;;1886750;75;21112;-68
2023/07/05 08:32:55;;;;;;;6.50;1.80;;;;;;;;;;1869945;75;21564;-69
2023/07/05 08:35:26;;;;;;;10.45;2.72;;;;;;;;;;1882806;75;21082;-70
2023/07/05 08:37:59;;;;;;;6.80;2.05;;;;;;;;;;1888237;75;21183;-71
2023/07/05 08:40:32;;;;;;;17.70;3.25;;;;;;;;;;1879006;75;21165;-70
2023/07/05 08:43:04;;;;;;;6.10;1.65;;;;;;;;;;1874522;75;21615;-68
2023/07/05 08:45:39;;;;;;;16.05;3.72;;;;;;;;;;1831998;77;21181;-68
2023/07/05 08:48:13;;;;;;;9.65;2.80;;;;;;;;;;1891436;74;21170;-69
2023/07/05 08:50:47;;;;;;;8.10;3.00;;;;;;;;;;1885551;75;21638;-68
2023/07/05 08:53:23;;;;;;;11.85;2.40;;;;;;;;;;1884710;75;21175;-69
2023/07/05 08:55:56;;;;;;;9.53;2.85;;;;;;;;;;1902134;75;21592;-68
2023/07/05 08:58:42;;;;;;;24.60;4.25;;;;;;;;;;1874839;75;21144;-68
2023/07/05 09:01:15;;;;;;;5.42;2.15;;;;;;;;;;1872821;76;21124;-68
2023/07/05 09:03:47;;;;;;;3.17;1.30;;;;;;;;;;1868347;76;21166;-69
2023/07/05 09:06:27;;;;;;;15.30;3.17;;;;;;;;;;1888849;76;21120;-69
2023/07/05 09:09:00;;;;;;;13.90;3.55;;;;;;;;;;1882641;76;21126;-68
2023/07/05 09:11:45;;;;;;;9.45;2.80;;;;;;;;;;1869061;75;21154;-66
2023/07/05 09:14:30;;;;;;;11.57;3.00;;;;;;;;;;1863860;76;21144;-70
2023/07/05 09:17:02;;;;;;;7.47;2.33;;;;;;;;;;1844346;76;21136;-68
2023/07/05 09:19:36;;;;;;;5.85;1.60;;;;;;;;;;1873323;76;21499;-69
2023/07/05 09:22:09;;;;;;;8.53;1.85;;;;;;;;;;1860751;76;21197;-69
2023/07/05 09:24:42;;;;;;;6.97;2.15;;;;;;;;;;1854740;76;21198;-69
2023/07/05 09:27:25;;;;;;;11.40;2.15;;;;;;;;;;1867793;76;21661;-70
2023/07/05 09:29:58;;;;;;;12.68;2.50;;;;;;;;;;1845460;76;21129;-70
2023/07/05 09:32:41;;;;;;;5.97;1.75;;;;;;;;;;1833815;77;21196;-68
2023/07/05 09:35:19;;;;;;;5.53;1.95;;;;;;;;;;1831599;77;21600;-70
2023/07/05 09:38:13;;;;;;;35.83;4.92;;;;;;;;;;1857352;76;21101;-69
2023/07/05 09:40:47;;;;;;;5.92;2.20;;;;;;;;;;1828691;77;21087;-70
2023/07/05 09:43:27;;;;;;;7.37;1.77;;;;;;;;;;1854753;76;21176;-69
2023/07/05 09:46:01;;;;;;;13.65;3.37;;;;;;;;;;1858141;76;21662;-69
2023/07/05 09:48:35;;;;;;;11.18;2.52;;;;;;;;;;1853947;76;21495;-68
2023/07/05 09:51:07;;;;;;;7.95;2.08;;;;;;;;;;1841339;76;21149;-68
2023/07/05 09:53:41;;;;;;;5.67;2.08;;;;;;;;;;1828336;77;21135;-70
2023/07/05 09:56:23;;;;;;;9.15;2.25;;;;;;;;;;1852298;76;21152;-69
2023/07/05 09:58:52;;;;;;;14.10;3.37;;;;;;;;;;1858499;76;21588;-69
2023/07/05 10:01:25;;;;;;;9.20;2.08;;;;;;;;;;1824097;77;21759;-73
2023/07/05 10:04:00;;;;;;;7.35;2.22;;;;;;;;;;1832970;77;21119;-67
2023/07/05 10:06:33;;;;;;;4.30;1.57;;;;;;;;;;1858658;76;21101;-70
2023/07/05 10:09:13;;;;;;;9.30;2.40;;;;;;;;;;1864464;75;21138;-69
2023/07/05 10:11:46;;;;;;;10.85;2.45;;;;;;;;;;1858040;76;21240;-69
2023/07/05 10:14:22;;;;;;;8.40;2.10;;;;;;;;;;1816950;78;21634;-70
2023/07/05 10:16:54;;;;;;;2.90;1.70;;;;;;;;;;1842370;76;21053;-68
2023/07/05 10:19:32;;;;;;;7.10;1.98;;;;;;;;;;1813714;78;21205;-68
2023/07/05 10:22:10;;;;;;;24.63;3.52;;;;;;;;;;1802341;78;21658;-70
2023/07/05 10:24:47;;;;;;;5.12;2.10;;;;;;;;;;1802930;78;21193;-69
2023/07/05 10:27:19;;;;;;;5.15;1.95;;;;;;;;;;1806314;78;21224;-69
2023/07/05 10:29:55;;;;;;;5.80;1.75;;;;;;;;;;1802588;78;21579;-68
2023/07/05 10:32:26;;;;;;;9.30;2.08;;;;;;;;;;1802915;78;21246;-69
2023/07/05 10:34:59;;;;;;;6.55;2.02;;;;;;;;;;1800723;78;21200;-70
2023/07/05 10:37:34;;;;;;;5.80;2.08;;;;;;;;;;1797308;78;21195;-68
2023/07/05 10:40:10;;;;;;;4.05;1.55;;;;;;;;;;1788627;78;21266;-68
2023/07/05 10:42:50;;;;;;;7.47;1.80;;;;;;;;;;1803942;78;21211;-69
2023/07/05 10:45:22;;;;;;;7.05;2.02;;;;;;;;;;1804056;78;21184;-70
2023/07/05 10:47:54;;;;;;;6.12;2.25;;;;;;;;;;1802228;78;21232;-72
2023/07/05 10:50:30;;;;;;;6.65;1.80;;;;;;;;;;1800217;78;21134;-68
2023/07/05 10:56:07;;;;;;;5.60;2.40;;;;;;;;;;1825156;77;21176;-67
2023/07/05 10:58:42;;;;;;;6.78;2.15;;;;;;;;;;1796353;80;21162;-68
2023/07/05 11:01:24;;;;;;;7.08;2.50;;;;;;;;;;1805045;78;21155;-69
2023/07/05 11:04:00;;;;;;;5.05;2.08;;;;;;;;;;1792540;80;21178;-68
2023/07/05 11:06:33;;;;;;;11.18;2.62;;;;;;;;;;1769691;79;21629;-70
2023/07/05 11:09:05;;;;;;;6.15;1.80;;;;;;;;;;1759156;79;21131;-68
2023/07/05 11:11:42;;;;;;;5.58;2.25;;;;;;;;;;1763090;79;21182;-70
2023/07/05 11:14:24;;;;;;;6.78;2.77;;;;;;;;;;1792251;80;21107;-67
2023/07/05 11:16:57;;;;;;;7.67;3.08;;;;;;;;;;1792226;78;21204;-68
2023/07/05 11:19:31;;;;;;;6.22;2.30;;;;;;;;;;1798320;78;21549;-67
2023/07/05 11:22:03;;;;;;;8.25;2.50;;;;;;;;;;1796421;78;21170;-69
2023/07/05 11:24:40;;;;;;;4.92;2.30;;;;;;;;;;1787141;80;21174;-70
2023/07/05 11:27:28;;;;;;;7.22;2.65;;;;;;;;;;1779970;80;21236;-70
2023/07/05 11:30:00;;;;;;;5.72;2.17;;;;;;;;;;1789908;78;21163;-69
2023/07/05 11:32:53;;;;;;;6.97;2.35;;;;;;;;;;1796164;78;21147;-69
2023/07/05 11:35:43;;;;;;;7.83;2.60;;;;;;;;;;1757877;80;21116;-68
2023/07/05 11:38:40;;;;;;;8.00;2.70;;;;;;;;;;1763157;81;21107;-69
2023/07/05 11:41:26;;;;;;;4.72;2.25;;;;;;;;;;1795649;80;21159;-69
2023/07/05 11:44:04;;;;;;;6.45;2.60;;;;;;;;;;1817707;77;21504;-69
2023/07/05 11:46:40;;;;;;;6.22;2.20;;;;;;;;;;1821295;77;21096;-68
2023/07/05 11:49:19;;;;;;;7.30;2.52;;;;;;;;;;1823319;77;21597;-69
2023/07/05 11:51:51;;;;;;;5.80;2.72;;;;;;;;;;1795024;78;21186;-68
2023/07/05 11:54:25;;;;;;;6.50;2.95;;;;;;;;;;1795256;79;21641;-68
2023/07/05 11:57:01;;;;;;;10.15;2.80;;;30.40;99.90;;;;;;1805675;78;21155;-68
2023/07/05 11:59:36;;;;;;;5.22;2.30;;;30.40;99.90;;;;;;1818777;77;21142;-67
2023/07/05 12:02:26;;;;;;;6.28;2.42;;;30.40;99.90;;;;;;1823666;77;21656;-68
2023/07/05 12:05:02;;;;;;;5.30;2.92;;;30.40;99.90;;;;;;1818365;77;21182;-68
2023/07/05 12:07:36;;;;;;;6.50;3.35;;;30.40;99.90;;;;;;1790568;79;21155;-68
2023/07/05 12:10:11;;;;;;;10.63;2.90;;;30.40;99.90;;;;;;1803341;77;22018;-69
2023/07/05 12:12:44;;;;;;;9.28;3.02;;;30.30;99.90;;;;;;1814663;77;21092;-67
2023/07/05 12:15:17;;;;;;;8.95;3.22;;;30.30;99.90;;;;;;1779570;78;21161;-67
2023/07/05 12:17:52;;;;;;;8.13;3.08;;;30.30;99.90;;;;;;1811398;77;22174;-67
2023/07/05 12:20:29;;;;;;;11.00;4.10;;;30.30;99.90;;;;;;1803993;78;21159;-70
2023/07/05 12:23:02;;;;;;;8.23;2.92;;;30.30;99.90;;;;;;1802935;78;21096;-68
2023/07/05 12:25:35;;;;;;;6.28;3.40;;;30.30;99.90;;;;;;1824723;78;21103;-67
2023/07/05 12:28:16;;;;;;;6.42;3.08;;;30.30;99.90;;;;;;1809934;78;21087;-68
2023/07/05 12:31:01;;;;;;;12.75;3.72;;;30.20;99.90;;;;;;1816658;77;21082;-68
2023/07/05 12:33:37;;;;;;;10.25;3.42;;;30.20;99.90;;;;;;1810280;77;21886;-68
2023/07/05 12:36:15;;;;;;;8.73;3.60;;;30.20;99.90;;;;;;1813976;77;21640;-68
2023/07/05 12:38:50;;;;;;;6.47;3.15;;;30.20;99.90;;;;;;1810717;77;21222;-68
2023/07/05 12:41:27;;;;;;;7.85;3.90;;;30.20;99.90;;;;;;1813211;77;21100;-67
2023/07/05 12:44:01;;;;;;;8.80;4.15;;;30.10;99.90;;;;;;1822594;78;21185;-69
2023/07/05 12:46:36;;;;;;;7.15;3.72;;;30.20;99.90;;;;;;1807730;78;21159;-68
2023/07/05 12:49:15;;;;;;;7.28;3.50;;;30.10;99.90;;;;;;1803911;78;21264;-67
2023/07/05 12:51:50;;;;;;;6.72;3.80;;;30.10;99.90;;;;;;1807739;78;21139;-68
2023/07/05 12:54:25;;;;;;;7.60;3.65;;;30.10;99.90;;;;;;1818429;77;21076;-67
2023/07/05 12:56:57;;;;;;;10.10;4.20;;;30.10;99.90;;;;;;1806948;79;21218;-67
2023/07/05 12:59:38;;;;;;;7.08;4.28;;;30.10;99.90;;;;;;1816649;78;21541;-67
2023/07/05 13:02:14;;;;;;;5.80;4.03;;;30.00;99.90;;;;;;1801768;77;21087;-67
2023/07/05 13:04:49;;;;;;;6.67;3.70;;;30.00;99.90;;;;;;1781007;80;21608;-66
2023/07/05 13:10:17;;;;;;;8.13;4.53;;;30.00;99.90;;;;;;1873866;76;21201;-68
2023/07/05 13:12:55;;;;;;;8.35;4.28;;;30.00;99.90;;;;;;1875261;74;21076;-68
2023/07/05 13:15:39;;;;;;;8.00;4.40;;;29.90;99.90;;;;;;1880452;75;21181;-68
2023/07/05 13:18:32;;;;;;;7.65;4.40;;;29.90;99.90;;;;;;1875076;75;21552;-68
2023/07/05 13:21:11;;;;;;;8.85;4.83;;;29.90;99.90;;;;;;1874631;75;21633;-67
2023/07/05 13:23:46;;;;;;;7.53;4.28;;;29.80;99.90;;;;;;1866589;75;21230;-69
2023/07/05 13:26:30;;;;;;;8.00;3.95;;;29.80;99.90;;;;;;1835739;78;21116;-67
2023/07/05 13:29:23;;;;;;;9.83;4.67;;;29.80;99.90;;;;;;1860460;75;21157;-68
2023/07/05 13:31:58;;;;;;;7.95;3.70;;;29.70;99.90;;;;;;1863816;75;21112;-66
2023/07/05 13:34:31;;;;;;;9.50;4.20;;;29.80;99.90;;;;;;1855146;76;21148;-67
2023/07/05 13:37:05;;;;;;;8.15;3.92;;;29.70;99.90;;;;;;1865745;75;21177;-68
2023/07/05 13:39:38;;;;;;;11.63;4.17;;;29.70;99.90;;;;;;1861225;75;21753;-66
2023/07/05 13:42:15;;;;;;;8.75;4.08;;;29.70;99.90;;;;;;1860644;76;21086;-68
2023/07/05 13:44:48;;;;;;;10.48;4.20;;;29.70;99.90;;;;;;1858214;76;21097;-67
2023/07/05 13:47:20;;;;;;;10.48;4.10;;;29.70;99.90;;;;;;1870298;76;21176;-68
2023/07/05 13:49:57;;;;;;;8.43;4.10;;;29.60;99.90;;;;;;1868505;75;21676;-68
2023/07/05 13:52:32;;;;;;;7.58;3.98;;;29.60;99.90;;;;;;1881415;75;21214;-67
2023/07/05 13:55:06;;;;;;;11.15;4.28;;;29.60;99.90;;;;;;1884820;75;21562;-67
2023/07/05 13:57:40;;;;;;;7.58;3.98;;;29.60;99.90;;;;;;1865761;75;21568;-68
2023/07/05 14:00:13;;;;;;;7.42;4.33;;;29.50;99.90;;;;;;1858366;74;21141;-70
2023/07/05 14:02:49;;;;;;;12.05;4.00;;;29.50;99.90;;;;;;1872904;76;21148;-68
2023/07/05 14:05:23;;;;;;;8.20;4.05;;;29.50;99.90;;;;;;1869061;75;21085;-68
2023/07/05 14:07:54;;;;;;;9.30;4.45;;;29.50;99.90;;;;;;1868397;76;21106;-68
2023/07/05 14:10:28;;;;;;;6.42;3.70;;;29.50;99.90;;;;;;1840402;77;21218;-68
2023/07/05 14:13:02;;;;;;;11.95;4.28;;;29.50;99.90;;;;;;1855884;76;21106;-68
2023/07/05 14:15:37;;;;;;;10.45;4.30;;;29.50;99.90;;;;;;1865339;75;21669;-68
2023/07/05 14:18:14;;;;;;;6.75;4.00;;;29.40;99.90;;;;;;1874254;76;21132;-70
2023/07/05 14:20:49;;;;;;;8.98;3.83;;;29.40;99.90;;;;;;1860997;75;21133;-69
2023/07/05 14:23:23;;;;;;;7.03;3.87;;;29.40;99.90;;;;;;1847151;76;21202;-80
2023/07/05 14:26:13;;;;;;;10.85;4.60;;;29.40;99.90;;;;;;1860683;75;21163;-76
2023/07/05 14:28:46;;;;;;;8.43;3.70;;;29.40;99.90;;;;;;1863297;75;21751;-80
2023/07/05 14:31:37;;;;;;;6.80;3.30;;;29.40;99.90;;;;;;1856188;77;21144;-78
2023/07/05 14:34:15;;;;;;;11.18;4.15;;;29.40;99.90;;;;;;1864479;76;21064;-79
2023/07/05 14:36:50;;;;;;;6.97;3.85;;;29.40;99.90;;;;;;1856239;75;21172;-80
2023/07/05 14:39:23;;;;;;;9.45;4.10;;;29.40;99.90;;;;;;1867701;76;21210;-82
2023/07/05 14:41:57;;;;;;;7.55;3.87;;;29.30;99.90;;;;;;1864165;76;21086;-81
2023/07/05 14:44:30;;;;;;;8.75;3.87;;;29.30;99.90;;;;;;1868214;76;21088;-82
2023/07/05 14:47:05;;;;;;;8.58;3.98;;;29.30;99.90;;;;;;1865826;75;21089;-80